sensor_id;sensor_type;location;lat;lon;timestamp;pressure;altitude;pressure_sealevel;temperature;humidity
35489;BME280;21602;55.670;37.578;2023-12-07T00:01:04;100988.50;;;-7.53;82.88
35489;BME280;21602;55.670;37.578;2023-12-07T00:03:30;100989.34;;;-7.53;82.83
35489;BME280;21602;55.670;37.578;2023-12-07T00:05:56;100994.78;;;-7.57;82.75
35489;BME280;21602;55.670;37.578;2023-12-07T00:08:22;100992.72;;;-7.68;82.57
35489;BME280;21602;55.670;37.578;2023-12-07T00:10:48;100992.34;;;-7.78;82.89
35489;BME280;21602;55.670;37.578;2023-12-07T00:13:14;100989.91;;;-7.81;83.07
35489;BME280;21602;55.670;37.578;2023-12-07T00:15:40;100991.88;;;-7.86;83.16
35489;BME280;21602;55.670;37.578;2023-12-07T00:18:06;100995.66;;;-7.93;83.26
35489;BME280;21602;55.670;37.578;2023-12-07T00:20:33;100989.81;;;-7.96;83.43
35489;BME280;21602;55.670;37.578;2023-12-07T00:22:59;100999.50;;;-8.00;83.68
35489;BME280;21602;55.670;37.578;2023-12-07T00:25:25;100992.91;;;-8.07;83.48
35489;BME280;21602;55.670;37.578;2023-12-07T00:27:51;100998.25;;;-8.10;83.93
35489;BME280;21602;55.670;37.578;2023-12-07T00:30:17;100995.16;;;-8.00;84.21
35489;BME280;21602;55.670;37.578;2023-12-07T00:32:43;100998.81;;;-7.86;83.76
35489;BME280;21602;55.670;37.578;2023-12-07T00:35:13;100999.78;;;-7.89;83.36
35489;BME280;21602;55.670;37.578;2023-12-07T00:37:40;100999.03;;;-7.91;83.49
35489;BME280;21602;55.670;37.578;2023-12-07T00:40:06;100996.75;;;-7.97;83.49
35489;BME280;21602;55.670;37.578;2023-12-07T00:42:33;100999.19;;;-7.94;83.69
35489;BME280;21602;55.670;37.578;2023-12-07T00:45:00;101006.81;;;-7.91;83.66
35489;BME280;21602;55.670;37.578;2023-12-07T00:47:26;101004.09;;;-7.88;83.49
35489;BME280;21602;55.670;37.578;2023-12-07T00:49:52;101000.84;;;-7.93;83.14
35489;BME280;21602;55.670;37.578;2023-12-07T00:52:18;101002.09;;;-8.00;83.04
35489;BME280;21602;55.670;37.578;2023-12-07T00:54:44;101009.34;;;-8.07;83.40
35489;BME280;21602;55.670;37.578;2023-12-07T00:57:10;101009.59;;;-8.13;83.29
35489;BME280;21602;55.670;37.578;2023-12-07T00:59:36;101008.16;;;-8.18;83.61
35489;BME280;21602;55.670;37.578;2023-12-07T01:02:03;101009.81;;;-8.17;83.78
35489;BME280;21602;55.670;37.578;2023-12-07T01:04:32;101013.13;;;-8.14;83.60
35489;BME280;21602;55.670;37.578;2023-12-07T01:06:58;101022.56;;;-8.13;83.80
35489;BME280;21602;55.670;37.578;2023-12-07T01:09:25;101019.84;;;-8.10;83.65
35489;BME280;21602;55.670;37.578;2023-12-07T01:11:51;101018.06;;;-8.09;83.77
35489;BME280;21602;55.670;37.578;2023-12-07T01:14:18;101021.19;;;-8.03;83.79
35489;BME280;21602;55.670;37.578;2023-12-07T01:16:44;101025.09;;;-7.94;83.72
35489;BME280;21602;55.670;37.578;2023-12-07T01:19:10;101016.50;;;-7.94;83.29
35489;BME280;21602;55.670;37.578;2023-12-07T01:21:42;101024.81;;;-7.88;83.29
35489;BME280;21602;55.670;37.578;2023-12-07T01:24:09;101030.06;;;-7.89;83.08
35489;BME280;21602;55.670;37.578;2023-12-07T01:26:35;101032.88;;;-7.94;82.55
35489;BME280;21602;55.670;37.578;2023-12-07T01:29:01;101023.88;;;-8.04;82.88
35489;BME280;21602;55.670;37.578;2023-12-07T01:31:29;101030.28;;;-8.11;83.14
35489;BME280;21602;55.670;37.578;2023-12-07T01:33:55;101022.56;;;-8.13;83.43
35489;BME280;21602;55.670;37.578;2023-12-07T01:36:21;101036.44;;;-8.14;83.24
35489;BME280;21602;55.670;37.578;2023-12-07T01:38:47;101031.25;;;-8.14;83.54
35489;BME280;21602;55.670;37.578;2023-12-07T01:41:13;101033.94;;;-8.15;83.36
35489;BME280;21602;55.670;37.578;2023-12-07T01:43:45;101034.84;;;-8.16;83.60
35489;BME280;21602;55.670;37.578;2023-12-07T01:46:11;101042.84;;;-8.21;83.55
35489;BME280;21602;55.670;37.578;2023-12-07T01:48:38;101050.38;;;-8.16;83.83
35489;BME280;21602;55.670;37.578;2023-12-07T01:51:04;101043.38;;;-8.14;83.79
35489;BME280;21602;55.670;37.578;2023-12-07T01:53:30;101049.53;;;-8.17;83.45
35489;BME280;21602;55.670;37.578;2023-12-07T01:55:56;101053.47;;;-8.27;83.55
35489;BME280;21602;55.670;37.578;2023-12-07T01:58:23;101054.00;;;-8.38;84.03
35489;BME280;21602;55.670;37.578;2023-12-07T02:00:49;101049.66;;;-8.37;84.36
35489;BME280;21602;55.670;37.578;2023-12-07T02:03:16;101053.53;;;-8.29;84.29
35489;BME280;21602;55.670;37.578;2023-12-07T02:05:46;101052.78;;;-8.31;83.90
35489;BME280;21602;55.670;37.578;2023-12-07T02:08:13;101052.63;;;-8.28;84.13
35489;BME280;21602;55.670;37.578;2023-12-07T02:10:39;101062.03;;;-8.25;83.94
35489;BME280;21602;55.670;37.578;2023-12-07T02:13:05;101048.16;;;-8.24;84.06
35489;BME280;21602;55.670;37.578;2023-12-07T02:15:32;101060.25;;;-8.25;84.07
35489;BME280;21602;55.670;37.578;2023-12-07T02:18:10;101061.44;;;-8.32;84.17
35489;BME280;21602;55.670;37.578;2023-12-07T02:23:33;101065.75;;;-8.31;84.33
35489;BME280;21602;55.670;37.578;2023-12-07T02:26:31;101065.38;;;-8.23;84.13
35489;BME280;21602;55.670;37.578;2023-12-07T02:28:57;101064.00;;;-8.30;83.85
35489;BME280;21602;55.670;37.578;2023-12-07T02:31:23;101055.22;;;-8.28;84.07
35489;BME280;21602;55.670;37.578;2023-12-07T02:33:48;101062.50;;;-8.36;83.95
35489;BME280;21602;55.670;37.578;2023-12-07T02:36:19;101065.41;;;-8.42;84.13
35489;BME280;21602;55.670;37.578;2023-12-07T02:38:47;101079.16;;;-8.40;84.07
35489;BME280;21602;55.670;37.578;2023-12-07T02:41:15;101072.13;;;-8.38;84.21
35489;BME280;21602;55.670;37.578;2023-12-07T02:43:42;101069.53;;;-8.38;83.86
35489;BME280;21602;55.670;37.578;2023-12-07T02:46:08;101074.09;;;-8.43;83.98
35489;BME280;21602;55.670;37.578;2023-12-07T02:48:34;101070.03;;;-8.48;83.99
35489;BME280;21602;55.670;37.578;2023-12-07T02:51:00;101074.63;;;-8.55;83.74
35489;BME280;21602;55.670;37.578;2023-12-07T02:53:26;101078.16;;;-8.56;83.90
35489;BME280;21602;55.670;37.578;2023-12-07T02:55:51;101082.38;;;-8.54;84.42
35489;BME280;21602;55.670;37.578;2023-12-07T02:58:17;101077.84;;;-8.50;84.12
35489;BME280;21602;55.670;37.578;2023-12-07T03:00:43;101078.94;;;-8.54;83.93
35489;BME280;21602;55.670;37.578;2023-12-07T03:03:09;101083.91;;;-8.49;84.01
35489;BME280;21602;55.670;37.578;2023-12-07T03:05:36;101090.97;;;-8.53;83.86
35489;BME280;21602;55.670;37.578;2023-12-07T03:08:02;101092.63;;;-8.52;83.68
35489;BME280;21602;55.670;37.578;2023-12-07T03:10:28;101094.06;;;-8.45;83.95
35489;BME280;21602;55.670;37.578;2023-12-07T03:12:54;101092.16;;;-8.41;83.75
35489;BME280;21602;55.670;37.578;2023-12-07T03:15:19;101093.06;;;-8.42;83.49
35489;BME280;21602;55.670;37.578;2023-12-07T03:17:45;101101.66;;;-8.42;83.49
35489;BME280;21602;55.670;37.578;2023-12-07T03:20:12;101105.31;;;-8.46;83.48
35489;BME280;21602;55.670;37.578;2023-12-07T03:22:39;101105.38;;;-8.47;83.51
35489;BME280;21602;55.670;37.578;2023-12-07T03:25:05;101118.53;;;-8.52;83.13
35489;BME280;21602;55.670;37.578;2023-12-07T03:27:31;101112.22;;;-8.46;83.27
35489;BME280;21602;55.670;37.578;2023-12-07T03:29:57;101118.66;;;-8.55;82.72
35489;BME280;21602;55.670;37.578;2023-12-07T03:32:23;101123.09;;;-8.57;83.07
35489;BME280;21602;55.670;37.578;2023-12-07T03:34:49;101122.09;;;-8.55;83.26
35489;BME280;21602;55.670;37.578;2023-12-07T03:37:15;101125.53;;;-8.54;83.21
35489;BME280;21602;55.670;37.578;2023-12-07T03:39:42;101127.84;;;-8.48;83.17
35489;BME280;21602;55.670;37.578;2023-12-07T03:42:08;101132.00;;;-8.44;83.13
35489;BME280;21602;55.670;37.578;2023-12-07T03:44:34;101133.75;;;-8.44;83.02
35489;BME280;21602;55.670;37.578;2023-12-07T03:47:01;101135.41;;;-8.43;83.08
35489;BME280;21602;55.670;37.578;2023-12-07T03:49:27;101132.19;;;-8.48;82.98
35489;BME280;21602;55.670;37.578;2023-12-07T03:51:53;101130.53;;;-8.49;83.01
35489;BME280;21602;55.670;37.578;2023-12-07T03:54:19;101130.56;;;-8.51;82.98
35489;BME280;21602;55.670;37.578;2023-12-07T03:56:46;101132.53;;;-8.56;83.29
35489;BME280;21602;55.670;37.578;2023-12-07T03:59:12;101142.75;;;-8.53;83.28
35489;BME280;21602;55.670;37.578;2023-12-07T04:01:38;101141.72;;;-8.49;83.11
35489;BME280;21602;55.670;37.578;2023-12-07T04:04:04;101135.50;;;-8.45;82.82
35489;BME280;21602;55.670;37.578;2023-12-07T04:06:32;101141.16;;;-8.37;82.76
35489;BME280;21602;55.670;37.578;2023-12-07T04:08:58;101137.56;;;-8.34;82.28
35489;BME280;21602;55.670;37.578;2023-12-07T04:11:24;101141.22;;;-8.19;82.71
35489;BME280;21602;55.670;37.578;2023-12-07T04:13:50;101137.69;;;-8.18;81.84
35489;BME280;21602;55.670;37.578;2023-12-07T04:16:16;101146.25;;;-8.16;81.58
35489;BME280;21602;55.670;37.578;2023-12-07T04:18:42;101149.19;;;-8.24;81.42
35489;BME280;21602;55.670;37.578;2023-12-07T04:21:08;101151.34;;;-8.34;81.48
35489;BME280;21602;55.670;37.578;2023-12-07T04:23:34;101145.69;;;-8.42;81.95
35489;BME280;21602;55.670;37.578;2023-12-07T04:26:03;101149.88;;;-8.58;81.79
35489;BME280;21602;55.670;37.578;2023-12-07T04:28:32;101145.88;;;-8.65;82.51
35489;BME280;21602;55.670;37.578;2023-12-07T04:30:58;101147.44;;;-8.61;83.00
35489;BME280;21602;55.670;37.578;2023-12-07T04:33:24;101147.03;;;-8.52;82.81
35489;BME280;21602;55.670;37.578;2023-12-07T04:35:50;101150.25;;;-8.47;82.31
35489;BME280;21602;55.670;37.578;2023-12-07T04:38:18;101157.09;;;-8.46;81.97
35489;BME280;21602;55.670;37.578;2023-12-07T04:40:44;101152.19;;;-8.52;82.07
35489;BME280;21602;55.670;37.578;2023-12-07T04:43:10;101149.88;;;-8.58;82.37
35489;BME280;21602;55.670;37.578;2023-12-07T04:45:37;101159.72;;;-8.66;82.14
35489;BME280;21602;55.670;37.578;2023-12-07T04:48:04;101159.41;;;-8.79;82.21
35489;BME280;21602;55.670;37.578;2023-12-07T04:50:30;101156.13;;;-8.83;82.42
35489;BME280;21602;55.670;37.578;2023-12-07T04:52:56;101160.59;;;-8.86;82.78
35489;BME280;21602;55.670;37.578;2023-12-07T04:55:22;101163.44;;;-8.92;82.83
35489;BME280;21602;55.670;37.578;2023-12-07T04:57:48;101163.50;;;-8.94;83.10
35489;BME280;21602;55.670;37.578;2023-12-07T05:00:14;101161.63;;;-8.90;83.48
35489;BME280;21602;55.670;37.578;2023-12-07T05:02:40;101164.94;;;-8.87;83.17
35489;BME280;21602;55.670;37.578;2023-12-07T05:05:09;101162.09;;;-9.01;83.41
35489;BME280;21602;55.670;37.578;2023-12-07T05:07:35;101170.09;;;-9.07;83.48
35489;BME280;21602;55.670;37.578;2023-12-07T05:10:00;101170.47;;;-9.16;83.98
35489;BME280;21602;55.670;37.578;2023-12-07T05:12:29;101172.16;;;-9.15;84.21
35489;BME280;21602;55.670;37.578;2023-12-07T05:14:57;101172.09;;;-9.14;84.24
35489;BME280;21602;55.670;37.578;2023-12-07T05:17:23;101176.63;;;-9.19;83.97
35489;BME280;21602;55.670;37.578;2023-12-07T05:19:49;101186.72;;;-9.13;84.39
35489;BME280;21602;55.670;37.578;2023-12-07T05:22:15;101188.38;;;-9.12;84.08
35489;BME280;21602;55.670;37.578;2023-12-07T05:24:41;101191.16;;;-9.16;83.63
35489;BME280;21602;55.670;37.578;2023-12-07T05:27:07;101193.34;;;-9.27;83.88
35489;BME280;21602;55.670;37.578;2023-12-07T05:29:34;101196.72;;;-9.25;84.14
35489;BME280;21602;55.670;37.578;2023-12-07T05:32:00;101191.34;;;-9.21;84.21
35489;BME280;21602;55.670;37.578;2023-12-07T05:34:27;101202.41;;;-9.17;84.03
35489;BME280;21602;55.670;37.578;2023-12-07T05:36:53;101202.69;;;-9.23;83.73
35489;BME280;21602;55.670;37.578;2023-12-07T05:39:19;101204.53;;;-9.27;83.34
35489;BME280;21602;55.670;37.578;2023-12-07T05:41:45;101209.72;;;-9.27;83.66
35489;BME280;21602;55.670;37.578;2023-12-07T05:44:12;101210.53;;;-9.26;83.39
35489;BME280;21602;55.670;37.578;2023-12-07T05:46:38;101220.66;;;-9.20;83.23
35489;BME280;21602;55.670;37.578;2023-12-07T05:49:09;101215.88;;;-9.30;83.11
35489;BME280;21602;55.670;37.578;2023-12-07T05:51:35;101227.50;;;-9.41;83.08
35489;BME280;21602;55.670;37.578;2023-12-07T05:54:01;101219.72;;;-9.40;83.32
35489;BME280;21602;55.670;37.578;2023-12-07T05:56:28;101223.44;;;-9.47;83.08
35489;BME280;21602;55.670;37.578;2023-12-07T05:58:54;101226.44;;;-9.58;82.83
35489;BME280;21602;55.670;37.578;2023-12-07T06:01:21;101230.13;;;-9.63;83.00
35489;BME280;21602;55.670;37.578;2023-12-07T06:03:47;101225.66;;;-9.60;83.67
35489;BME280;21602;55.670;37.578;2023-12-07T06:06:13;101232.34;;;-9.54;83.62
35489;BME280;21602;55.670;37.578;2023-12-07T06:08:40;101231.44;;;-9.53;83.40
35489;BME280;21602;55.670;37.578;2023-12-07T06:11:06;101236.06;;;-9.61;83.21
35489;BME280;21602;55.670;37.578;2023-12-07T06:13:33;101238.03;;;-9.68;83.30
35489;BME280;21602;55.670;37.578;2023-12-07T06:16:04;101234.72;;;-9.71;83.30
35489;BME280;21602;55.670;37.578;2023-12-07T06:18:30;101238.22;;;-9.72;83.65
35489;BME280;21602;55.670;37.578;2023-12-07T06:20:56;101239.91;;;-9.71;83.50
35489;BME280;21602;55.670;37.578;2023-12-07T06:23:22;101228.94;;;-9.78;83.48
35489;BME280;21602;55.670;37.578;2023-12-07T06:25:50;101232.81;;;-9.90;83.79
35489;BME280;21602;55.670;37.578;2023-12-07T06:28:16;101234.84;;;-9.98;83.78
35489;BME280;21602;55.670;37.578;2023-12-07T06:30:42;101238.09;;;-9.93;83.95
35489;BME280;21602;55.670;37.578;2023-12-07T06:33:08;101237.09;;;-9.89;83.94
35489;BME280;21602;55.670;37.578;2023-12-07T06:35:38;101239.66;;;-9.89;83.55
35489;BME280;21602;55.670;37.578;2023-12-07T06:38:05;101242.16;;;-9.86;83.73
35489;BME280;21602;55.670;37.578;2023-12-07T06:40:31;101243.59;;;-9.78;83.54
35489;BME280;21602;55.670;37.578;2023-12-07T06:42:58;101246.81;;;-9.72;83.22
35489;BME280;21602;55.670;37.578;2023-12-07T06:45:24;101243.25;;;-9.69;83.15
35489;BME280;21602;55.670;37.578;2023-12-07T06:47:50;101241.56;;;-9.70;82.82
35489;BME280;21602;55.670;37.578;2023-12-07T06:50:17;101239.25;;;-9.78;82.67
35489;BME280;21602;55.670;37.578;2023-12-07T06:52:42;101239.22;;;-9.76;82.83
35489;BME280;21602;55.670;37.578;2023-12-07T06:55:10;101234.06;;;-9.76;83.01
35489;BME280;21602;55.670;37.578;2023-12-07T06:57:36;101238.25;;;-9.74;82.95
35489;BME280;21602;55.670;37.578;2023-12-07T07:00:02;101241.56;;;-9.70;82.51
35489;BME280;21602;55.670;37.578;2023-12-07T07:02:31;101238.03;;;-9.68;82.56
35489;BME280;21602;55.670;37.578;2023-12-07T07:04:57;101236.97;;;-9.62;82.43
35489;BME280;21602;55.670;37.578;2023-12-07T07:07:23;101234.47;;;-9.65;82.14
35489;BME280;21602;55.670;37.578;2023-12-07T07:09:49;101236.50;;;-9.73;82.08
35489;BME280;21602;55.670;37.578;2023-12-07T07:12:15;101245.00;;;-9.70;82.39
35489;BME280;21602;55.670;37.578;2023-12-07T07:14:42;101251.47;;;-9.58;82.65
35489;BME280;21602;55.670;37.578;2023-12-07T07:17:07;101250.63;;;-9.59;81.89
35489;BME280;21602;55.670;37.578;2023-12-07T07:19:33;101249.16;;;-9.66;81.77
35489;BME280;21602;55.670;37.578;2023-12-07T07:21:59;101246.50;;;-9.64;81.95
35489;BME280;21602;55.670;37.578;2023-12-07T07:24:25;101245.72;;;-9.66;82.21
35489;BME280;21602;55.670;37.578;2023-12-07T07:26:51;101245.00;;;-9.70;81.78
35489;BME280;21602;55.670;37.578;2023-12-07T07:29:17;101239.78;;;-9.68;81.66
35489;BME280;21602;55.670;37.578;2023-12-07T07:31:42;101240.56;;;-9.66;81.88
35489;BME280;21602;55.670;37.578;2023-12-07T07:34:08;101237.97;;;-9.66;81.67
35489;BME280;21602;55.670;37.578;2023-12-07T07:36:34;101250.66;;;-9.60;81.36
35489;BME280;21602;55.670;37.578;2023-12-07T07:39:00;101253.88;;;-9.53;81.50
35489;BME280;21602;55.670;37.578;2023-12-07T07:41:26;101256.31;;;-9.50;81.17
35489;BME280;21602;55.670;37.578;2023-12-07T07:43:52;101256.44;;;-9.53;80.56
35489;BME280;21602;55.670;37.578;2023-12-07T07:46:21;101249.53;;;-9.53;80.68
35489;BME280;21602;55.670;37.578;2023-12-07T07:48:47;101265.09;;;-9.55;80.45
35489;BME280;21602;55.670;37.578;2023-12-07T07:51:14;101259.75;;;-9.50;80.69
35489;BME280;21602;55.670;37.578;2023-12-07T07:53:40;101269.63;;;-9.38;80.51
35489;BME280;21602;55.670;37.578;2023-12-07T07:56:06;101266.03;;;-9.34;79.96
35489;BME280;21602;55.670;37.578;2023-12-07T07:58:32;101267.34;;;-9.23;79.95
35489;BME280;21602;55.670;37.578;2023-12-07T08:00:58;101270.69;;;-9.21;79.28
35489;BME280;21602;55.670;37.578;2023-12-07T08:03:24;101261.81;;;-9.14;79.14
35489;BME280;21602;55.670;37.578;2023-12-07T08:05:50;101269.56;;;-9.14;78.63
35489;BME280;21602;55.670;37.578;2023-12-07T08:08:16;101268.91;;;-9.19;78.73
35489;BME280;21602;55.670;37.578;2023-12-07T08:10:42;101271.59;;;-9.22;78.51
35489;BME280;21602;55.670;37.578;2023-12-07T08:13:09;101272.63;;;-9.26;78.34
35489;BME280;21602;55.670;37.578;2023-12-07T08:15:35;101271.00;;;-9.29;78.58
35489;BME280;21602;55.670;37.578;2023-12-07T08:18:01;101283.88;;;-9.27;78.20
35489;BME280;21602;55.670;37.578;2023-12-07T08:20:30;101276.97;;;-9.27;78.34
35489;BME280;21602;55.670;37.578;2023-12-07T08:22:56;101275.22;;;-9.26;77.97
35489;BME280;21602;55.670;37.578;2023-12-07T08:25:22;101282.97;;;-9.26;78.20
35489;BME280;21602;55.670;37.578;2023-12-07T08:27:50;101276.13;;;-9.27;78.15
35489;BME280;21602;55.670;37.578;2023-12-07T08:30:16;101270.94;;;-9.27;78.49
35489;BME280;21602;55.670;37.578;2023-12-07T08:32:44;101262.16;;;-9.23;77.98
35489;BME280;21602;55.670;37.578;2023-12-07T08:35:10;101264.94;;;-9.28;77.83
35489;BME280;21602;55.670;37.578;2023-12-07T08:37:37;101260.19;;;-9.39;77.43
35489;BME280;21602;55.670;37.578;2023-12-07T08:40:05;101257.72;;;-9.42;77.28
35489;BME280;21602;55.670;37.578;2023-12-07T08:42:34;101256.03;;;-9.43;77.39
35489;BME280;21602;55.670;37.578;2023-12-07T08:45:00;101259.75;;;-9.50;77.40
35489;BME280;21602;55.670;37.578;2023-12-07T08:47:29;101258.00;;;-9.49;77.38
35489;BME280;21602;55.670;37.578;2023-12-07T08:49:55;101260.00;;;-9.56;77.40
35489;BME280;21602;55.670;37.578;2023-12-07T08:52:22;101254.91;;;-9.59;77.60
35489;BME280;21602;55.670;37.578;2023-12-07T08:54:47;101255.53;;;-9.52;77.78
35489;BME280;21602;55.670;37.578;2023-12-07T08:57:13;101250.94;;;-9.44;77.57
35489;BME280;21602;55.670;37.578;2023-12-07T08:59:39;101261.63;;;-9.53;77.46
35489;BME280;21602;55.670;37.578;2023-12-07T09:02:05;101264.38;;;-9.58;77.31
35489;BME280;21602;55.670;37.578;2023-12-07T09:04:31;101259.88;;;-9.53;77.88
35489;BME280;21602;55.670;37.578;2023-12-07T09:06:56;101260.53;;;-9.48;77.83
35489;BME280;21602;55.670;37.578;2023-12-07T09:09:22;101261.88;;;-9.38;77.75
35489;BME280;21602;55.670;37.578;2023-12-07T09:11:49;101260.34;;;-9.21;77.74
35489;BME280;21602;55.670;37.578;2023-12-07T09:14:14;101255.72;;;-9.13;77.18
35489;BME280;21602;55.670;37.578;2023-12-07T09:16:44;101254.69;;;-9.09;76.72
35489;BME280;21602;55.670;37.578;2023-12-07T09:19:11;101248.88;;;-9.14;76.56
35489;BME280;21602;55.670;37.578;2023-12-07T09:21:38;101246.53;;;-9.20;76.73
35489;BME280;21602;55.670;37.578;2023-12-07T09:24:04;101246.41;;;-9.17;76.44
35489;BME280;21602;55.670;37.578;2023-12-07T09:26:32;101250.16;;;-9.24;76.66
35489;BME280;21602;55.670;37.578;2023-12-07T09:28:58;101250.91;;;-9.22;77.05
35489;BME280;21602;55.670;37.578;2023-12-07T09:31:24;101249.31;;;-9.25;76.70
35489;BME280;21602;55.670;37.578;2023-12-07T09:33:50;101257.25;;;-9.30;76.65
35489;BME280;21602;55.670;37.578;2023-12-07T09:36:18;101254.34;;;-9.22;77.14
35489;BME280;21602;55.670;37.578;2023-12-07T09:38:44;101253.25;;;-9.16;76.65
35489;BME280;21602;55.670;37.578;2023-12-07T09:41:10;101252.78;;;-9.04;76.66
35489;BME280;21602;55.670;37.578;2023-12-07T09:43:37;101243.78;;;-8.95;76.05
35489;BME280;21602;55.670;37.578;2023-12-07T09:46:03;101254.69;;;-8.87;76.41
35489;BME280;21602;55.670;37.578;2023-12-07T09:48:29;101249.63;;;-8.90;76.04
35489;BME280;21602;55.670;37.578;2023-12-07T09:50:59;101242.88;;;-8.94;75.93
35489;BME280;21602;55.670;37.578;2023-12-07T09:53:29;101246.72;;;-8.83;76.34
35489;BME280;21602;55.670;37.578;2023-12-07T09:55:58;101246.72;;;-8.83;75.97
35489;BME280;21602;55.670;37.578;2023-12-07T09:58:24;101252.97;;;-8.88;75.94
35489;BME280;21602;55.670;37.578;2023-12-07T10:00:50;101258.81;;;-8.83;76.03
35489;BME280;21602;55.670;37.578;2023-12-07T10:03:23;101248.25;;;-8.79;75.39
35489;BME280;21602;55.670;37.578;2023-12-07T10:05:59;101258.97;;;-8.66;75.60
35489;BME280;21602;55.670;37.578;2023-12-07T10:08:30;101248.94;;;-8.53;75.27
35489;BME280;21602;55.670;37.578;2023-12-07T10:11:07;101259.81;;;-8.45;75.11
35489;BME280;21602;55.670;37.578;2023-12-07T10:13:34;101261.22;;;-8.38;75.17
35489;BME280;21602;55.670;37.578;2023-12-07T10:16:14;101256.66;;;-8.33;75.04
35489;BME280;21602;55.670;37.578;2023-12-07T10:18:41;101264.47;;;-8.53;74.18
35489;BME280;21602;55.670;37.578;2023-12-07T10:21:10;101254.34;;;-8.59;74.71
35489;BME280;21602;55.670;37.578;2023-12-07T10:23:37;101252.28;;;-8.71;74.50
35489;BME280;21602;55.670;37.578;2023-12-07T10:26:07;101256.63;;;-8.72;74.60
35489;BME280;21602;55.670;37.578;2023-12-07T10:28:36;101258.56;;;-8.77;74.54
35489;BME280;21602;55.670;37.578;2023-12-07T10:31:03;101256.28;;;-8.85;74.53
35489;BME280;21602;55.670;37.578;2023-12-07T10:33:29;101261.19;;;-8.99;74.65
35489;BME280;21602;55.670;37.578;2023-12-07T10:35:55;101261.56;;;-9.08;74.90
35489;BME280;21602;55.670;37.578;2023-12-07T10:38:20;101258.97;;;-9.08;75.26
35489;BME280;21602;55.670;37.578;2023-12-07T10:40:47;101255.47;;;-9.07;75.50
35489;BME280;21602;55.670;37.578;2023-12-07T10:43:15;101257.69;;;-8.98;75.62
35489;BME280;21602;55.670;37.578;2023-12-07T10:45:43;101260.44;;;-8.81;76.09
35489;BME280;21602;55.670;37.578;2023-12-07T10:48:10;101263.19;;;-8.63;76.12
35489;BME280;21602;55.670;37.578;2023-12-07T10:50:46;101264.31;;;-8.50;75.70
35489;BME280;21602;55.670;37.578;2023-12-07T10:53:27;101260.47;;;-8.40;75.43
35489;BME280;21602;55.670;37.578;2023-12-07T10:55:56;101258.56;;;-8.36;75.03
35489;BME280;21602;55.670;37.578;2023-12-07T10:58:25;101259.03;;;-8.47;74.82
35489;BME280;21602;55.670;37.578;2023-12-07T11:00:53;101264.72;;;-8.59;74.92
35489;BME280;21602;55.670;37.578;2023-12-07T11:03:20;101270.88;;;-8.62;75.29
35489;BME280;21602;55.670;37.578;2023-12-07T11:05:49;101272.44;;;-8.58;75.43
35489;BME280;21602;55.670;37.578;2023-12-07T11:11:12;101268.66;;;-8.71;74.70
35489;BME280;21602;55.670;37.578;2023-12-07T11:13:49;101272.63;;;-8.83;74.55
35489;BME280;21602;55.670;37.578;2023-12-07T11:16:37;101263.47;;;-8.91;74.53
35489;BME280;21602;55.670;37.578;2023-12-07T11:19:04;101268.19;;;-9.01;74.66
35489;BME280;21602;55.670;37.578;2023-12-07T11:21:33;101263.19;;;-9.06;74.71
35489;BME280;21602;55.670;37.578;2023-12-07T11:24:00;101266.47;;;-9.02;74.99
35489;BME280;21602;55.670;37.578;2023-12-07T11:26:29;101272.38;;;-8.98;74.80
35489;BME280;21602;55.670;37.578;2023-12-07T11:28:55;101269.84;;;-9.00;74.64
35489;BME280;21602;55.670;37.578;2023-12-07T11:31:22;101268.28;;;-9.04;74.20
35489;BME280;21602;55.670;37.578;2023-12-07T11:33:48;101264.94;;;-9.06;74.48
35489;BME280;21602;55.670;37.578;2023-12-07T11:36:16;101270.59;;;-9.18;74.36
35489;BME280;21602;55.670;37.578;2023-12-07T11:41:30;101277.50;;;-9.19;74.81
35489;BME280;21602;55.670;37.578;2023-12-07T11:44:02;101271.91;;;-9.08;74.82
35489;BME280;21602;55.670;37.578;2023-12-07T11:46:33;101275.47;;;-9.11;74.55
35489;BME280;21602;55.670;37.578;2023-12-07T11:49:01;101269.56;;;-9.14;74.48
35489;BME280;21602;55.670;37.578;2023-12-07T11:51:29;101273.00;;;-9.14;74.81
35489;BME280;21602;55.670;37.578;2023-12-07T11:53:55;101268.66;;;-9.13;74.90
35489;BME280;21602;55.670;37.578;2023-12-07T11:56:21;101273.00;;;-9.14;74.93
35489;BME280;21602;55.670;37.578;2023-12-07T11:58:47;101273.84;;;-9.13;74.81
35489;BME280;21602;55.670;37.578;2023-12-07T12:01:15;101269.38;;;-9.10;75.13
35489;BME280;21602;55.670;37.578;2023-12-07T12:03:45;101275.47;;;-9.11;74.88
35489;BME280;21602;55.670;37.578;2023-12-07T12:06:11;101271.19;;;-9.12;75.16
35489;BME280;21602;55.670;37.578;2023-12-07T12:08:41;101262.72;;;-9.15;75.12
35489;BME280;21602;55.670;37.578;2023-12-07T12:11:11;101277.69;;;-9.23;75.14
35489;BME280;21602;55.670;37.578;2023-12-07T12:13:37;101267.94;;;-9.17;76.02
35489;BME280;21602;55.670;37.578;2023-12-07T12:16:07;101272.22;;;-9.16;75.45
35489;BME280;21602;55.670;37.578;2023-12-07T12:18:37;101269.47;;;-9.11;75.41
35489;BME280;21602;55.670;37.578;2023-12-07T12:21:07;101266.16;;;-9.15;75.48
35489;BME280;21602;55.670;37.578;2023-12-07T12:23:34;101269.69;;;-9.17;75.74
35489;BME280;21602;55.670;37.578;2023-12-07T12:26:01;101269.63;;;-9.16;76.51
35489;BME280;21602;55.670;37.578;2023-12-07T12:28:30;101268.91;;;-9.19;75.89
35489;BME280;21602;55.670;37.578;2023-12-07T12:30:58;101265.66;;;-9.24;75.96
35489;BME280;21602;55.670;37.578;2023-12-07T12:33:24;101267.53;;;-9.28;76.15
35489;BME280;21602;55.670;37.578;2023-12-07T12:36:02;101271.00;;;-9.29;76.84
35489;BME280;21602;55.670;37.578;2023-12-07T12:38:28;101277.94;;;-9.30;76.60
35489;BME280;21602;55.670;37.578;2023-12-07T12:40:54;101282.09;;;-9.25;77.04
35489;BME280;21602;55.670;37.578;2023-12-07T12:43:21;101267.34;;;-9.23;76.91
35489;BME280;21602;55.670;37.578;2023-12-07T12:45:50;101275.88;;;-9.21;77.48
35489;BME280;21602;55.670;37.578;2023-12-07T12:48:15;101280.09;;;-9.19;77.72